Time;durP1;ratioP1;P1;durP2;ratioP2;P2;SDS_P1;SDS_P2;PMS_P1;PMS_P2;Temp;Humidity;BMP_temperature;BMP_pressure;BME280_temperature;BME280_humidity;BME280_pressure;Samples;Min_cycle;Max_cycle;Signal;HPM_P1;HPM_P2
2023/04/18 00:02:18;;;;;;;23.63;13.27;;;;;;;7.81;100.00;102597.25;4973770;28;20039;-71
2023/04/18 00:04:45;;;;;;;25.65;13.98;;;;;;;7.72;100.00;102617.81;4973483;28;20734;-71
2023/04/18 00:07:14;;;;;;;25.98;13.68;;;;;;;7.75;100.00;102606.25;4974129;28;20035;-71
2023/04/18 00:09:40;;;;;;;23.10;13.70;;;;;;;7.50;100.00;102605.94;4979234;28;20042;-71
2023/04/18 00:12:06;;;;;;;27.13;13.57;;;;;;;7.46;100.00;102613.06;4973206;28;20802;-71
2023/04/18 00:14:34;;;;;;;23.55;13.50;;;;;;;7.39;100.00;102608.81;4973540;28;20134;-71
2023/04/18 00:17:01;;;;;;;24.73;13.48;;;;;;;7.53;100.00;102611.19;4977337;28;20073;-70
2023/04/18 00:19:26;;;;;;;21.85;13.02;;;;;;;7.40;100.00;102612.34;4978404;28;20106;-71
2023/04/18 00:21:52;;;;;;;25.38;14.05;;;;;;;7.27;100.00;102619.69;4973490;28;20117;-70
2023/04/18 00:24:18;;;;;;;22.75;13.48;;;;;;;7.30;100.00;102614.31;4972510;28;20038;-70
2023/04/18 00:26:44;;;;;;;22.45;13.43;;;;;;;7.10;100.00;102608.56;4972073;28;20035;-70
2023/04/18 00:29:10;;;;;;;22.42;12.95;;;;;;;7.18;100.00;102620.78;4991766;28;20042;-70
2023/04/18 00:31:36;;;;;;;22.80;13.85;;;;;;;7.27;100.00;102604.63;4973119;28;20060;-70
2023/04/18 00:34:01;;;;;;;25.92;13.98;;;;;;;7.23;100.00;102613.59;4975750;28;20456;-72
2023/04/18 00:36:27;;;;;;;26.58;14.65;;;;;;;7.16;100.00;102608.44;4988188;28;20039;-71
2023/04/18 00:38:52;;;;;;;23.88;13.90;;;;;;;6.97;100.00;102613.22;4984529;28;20584;-71
2023/04/18 00:41:20;;;;;;;23.27;13.82;;;;;;;7.07;100.00;102609.47;4978758;28;20058;-71
2023/04/18 00:43:46;;;;;;;23.15;14.10;;;;;;;6.97;100.00;102610.56;4976897;28;20050;-72
2023/04/18 00:46:12;;;;;;;30.05;14.90;;;;;;;6.78;100.00;102606.53;4976529;28;20038;-71
2023/04/18 00:48:38;;;;;;;24.20;15.07;;;;;;;6.58;100.00;102607.81;4977395;28;20049;-71
2023/04/18 00:51:06;;;;;;;24.85;14.93;;;;;;;6.71;100.00;102605.78;4977263;28;20122;-71
2023/04/18 00:53:32;;;;;;;28.58;13.55;;;;;;;6.81;100.00;102607.34;4976406;28;20042;-71
2023/04/18 00:55:58;;;;;;;22.67;13.25;;;;;;;6.84;100.00;102604.66;4978683;28;20030;-72
2023/04/18 00:58:23;;;;;;;23.05;13.90;;;;;;;6.93;99.68;102612.44;4979200;28;20046;-72
2023/04/18 01:00:50;;;;;;;21.83;12.77;;;;;;;6.85;98.96;102603.75;4973142;28;20047;-72
2023/04/18 01:03:17;;;;;;;28.02;14.30;;;;;;;6.75;99.25;102607.47;4988161;28;20034;-72
2023/04/18 01:05:44;;;;;;;27.20;14.05;;;;;;;6.65;99.28;102611.19;4986356;28;20027;-71
2023/04/18 01:08:10;;;;;;;23.88;14.30;;;;;;;6.62;100.00;102608.59;4974413;28;20091;-72
2023/04/18 01:10:36;;;;;;;30.05;14.23;;;;;;;6.56;98.77;102606.06;4981075;28;20042;-71
2023/04/18 01:13:22;;;;;;;24.02;13.98;;;;;;;6.55;100.00;102607.84;4971915;28;20034;-69
2023/04/18 01:15:49;;;;;;;24.23;13.13;;;;;;;6.52;99.91;102604.38;4986907;28;20152;-70
2023/04/18 01:18:15;;;;;;;22.15;13.18;;;;;;;6.48;99.87;102607.09;4972968;28;20113;-70
2023/04/18 01:20:46;;;;;;;22.38;12.98;;;;;;;6.48;99.02;102609.75;4987264;28;20053;-72
2023/04/18 01:23:13;;;;;;;25.25;13.95;;;;;;;6.48;99.00;102600.91;4973873;28;20129;-72
2023/04/18 01:25:38;;;;;;;24.75;13.40;;;;;;;6.50;99.26;102596.44;4971634;28;20053;-70
2023/04/18 01:28:05;;;;;;;26.67;14.05;;;;;;;6.45;98.69;102593.88;4985398;28;20046;-72
2023/04/18 01:30:32;;;;;;;23.83;14.85;;;;;;;6.46;99.82;102600.06;4981462;28;20141;-72
2023/04/18 01:32:59;;;;;;;24.25;13.80;;;;;;;6.31;99.55;102598.53;4976312;28;20111;-70
2023/04/18 01:35:25;;;;;;;20.05;13.95;;;;;;;6.03;100.00;102590.22;4992942;28;20026;-71
2023/04/18 01:37:56;;;;;;;20.15;13.35;;;;;;;6.23;100.00;102588.09;4988202;28;20034;-72
2023/04/18 01:40:22;;;;;;;23.00;13.52;;;;;;;6.29;99.61;102592.41;4976360;28;20042;-72
2023/04/18 01:42:48;;;;;;;23.80;13.27;;;;;;;6.22;99.86;102596.06;4972509;28;20117;-71
2023/04/18 01:45:15;;;;;;;21.92;13.65;;;;;;;6.26;99.72;102592.44;4972202;28;20038;-70
2023/04/18 01:47:40;;;;;;;24.92;14.68;;;;;;;6.04;100.00;102594.59;4970987;28;20089;-70
2023/04/18 01:50:10;;;;;;;21.55;12.70;;;;;;;6.06;100.00;102587.50;4971776;28;20070;-70
2023/04/18 01:52:36;;;;;;;22.02;12.75;;;;;;;5.96;100.00;102588.53;4972047;28;20070;-70
2023/04/18 01:55:02;;;;;;;22.80;13.23;;;;;;;6.02;100.00;102587.56;4977810;28;20407;-70
2023/04/18 01:57:29;;;;;;;22.33;13.65;;;;;;;5.95;100.00;102581.50;4976619;28;20054;-70
2023/04/18 01:59:55;;;;;;;24.15;13.70;;;;;;;6.03;100.00;102581.41;4989091;28;20050;-70
2023/04/18 02:02:20;;;;;;;24.98;13.48;;;;;;;5.94;100.00;102583.28;4985442;28;20223;-70
2023/04/18 02:04:46;;;;;;;24.33;13.75;;;;;;;5.76;100.00;102583.53;4975767;28;20046;-70
2023/04/18 02:07:11;;;;;;;20.13;12.27;;;;;;;5.90;100.00;102575.38;4974668;28;20726;-70
2023/04/18 02:09:38;;;;;;;30.33;13.80;;;;;;;5.79;100.00;102577.31;4975843;28;20030;-70
2023/04/18 02:12:04;;;;;;;25.27;14.00;;;;;;;5.92;100.00;102582.44;4972700;28;20039;-70
2023/04/18 02:14:34;;;;;;;20.48;13.80;;;;;;;5.78;100.00;102584.41;4971050;28;20042;-70
2023/04/18 02:16:59;;;;;;;25.17;14.10;;;;;;;5.88;100.00;102583.34;4971476;28;20078;-72
2023/04/18 02:19:26;;;;;;;21.95;13.80;;;;;;;5.56;100.00;102586.47;4975382;28;21218;-70
2023/04/18 02:21:51;;;;;;;23.73;13.43;;;;;;;5.74;100.00;102585.34;4972280;28;20127;-70
2023/04/18 02:24:17;;;;;;;23.00;13.48;;;;;;;5.74;100.00;102581.81;4972559;28;20042;-72
2023/04/18 02:26:42;;;;;;;20.88;13.10;;;;;;;5.57;100.00;102579.41;4971100;28;20030;-72
2023/04/18 02:29:08;;;;;;;22.30;13.77;;;;;;;5.55;100.00;102581.22;4976889;28;20046;-72
2023/04/18 02:31:38;;;;;;;33.60;14.10;;;;;;;5.43;100.00;102575.19;4976033;28;20066;-70
2023/04/18 02:34:05;;;;;;;26.83;15.32;;;;;;;5.51;100.00;102580.38;4981408;28;20074;-70
2023/04/18 02:36:31;;;;;;;21.10;13.30;;;;;;;5.39;100.00;102583.19;4980139;28;20043;-70
2023/04/18 02:38:57;;;;;;;23.27;13.85;;;;;;;5.43;100.00;102580.50;4974134;28;20459;-71
2023/04/18 02:41:23;;;;;;;23.60;14.20;;;;;;;5.44;100.00;102582.22;4972504;28;21013;-70
2023/04/18 02:43:48;;;;;;;25.58;13.27;;;;;;;5.30;100.00;102586.84;4974069;28;20420;-72
2023/04/18 02:46:15;;;;;;;23.75;13.93;;;;;;;5.26;100.00;102582.47;4988905;28;20193;-72
2023/04/18 02:48:42;;;;;;;23.75;13.98;;;;;;;5.38;100.00;102592.03;4986021;28;20038;-72
2023/04/18 02:51:11;;;;;;;25.80;13.32;;;;;;;5.35;100.00;102582.34;4973730;28;20031;-71
2023/04/18 02:53:38;;;;;;;23.63;13.55;;;;;;;5.38;100.00;102584.09;4995115;28;20045;-71
2023/04/18 02:56:05;;;;;;;23.40;13.90;;;;;;;5.37;100.00;102582.31;4974610;28;20050;-72
2023/04/18 02:58:51;;;;;;;22.83;13.70;;;;;;;5.23;100.00;102586.94;4975127;28;20078;-72
2023/04/18 03:01:39;;;;;;;23.83;13.68;;;;;;;5.24;100.00;102583.41;4973312;28;20075;-70
2023/04/18 03:04:09;;;;;;;25.35;14.40;;;;;;;5.27;100.00;102584.25;4984753;28;20507;-71
2023/04/18 03:06:38;;;;;;;23.20;14.73;;;;;;;5.05;100.00;102588.03;4972205;28;20535;-71
2023/04/18 03:09:05;;;;;;;29.83;14.85;;;;;;;5.24;100.00;102586.91;4989693;28;20142;-70
2023/04/18 03:11:34;;;;;;;23.27;14.02;;;;;;;5.27;100.00;102581.59;4974762;28;20038;-71
2023/04/18 03:14:01;;;;;;;21.58;14.50;;;;;;;5.37;100.00;102579.69;4991868;28;20128;-70
2023/04/18 03:16:33;;;;;;;27.90;16.25;;;;;;;5.43;100.00;102577.84;4978687;28;20042;-70
2023/04/18 03:19:00;;;;;;;27.65;14.63;;;;;;;5.49;100.00;102584.81;4994630;28;20115;-70
2023/04/18 03:21:26;;;;;;;22.35;14.13;;;;;;;5.46;100.00;102583.06;4984409;28;20138;-72
2023/04/18 03:23:52;;;;;;;26.58;14.73;;;;;;;5.64;100.00;102576.66;4975551;28;20030;-71
2023/04/18 03:26:19;;;;;;;22.75;15.13;;;;;;;5.51;100.00;102572.44;4979086;28;20050;-70
2023/04/18 03:28:45;;;;;;;25.08;13.63;;;;;;;5.60;100.00;102584.66;4975277;28;20090;-70
2023/04/18 03:31:11;;;;;;;24.70;14.35;;;;;;;5.82;100.00;102569.31;4973940;28;20459;-72
2023/04/18 03:33:41;;;;;;;24.05;14.30;;;;;;;5.68;100.00;102570.41;4974018;28;20044;-72
2023/04/18 03:36:10;;;;;;;25.17;14.65;;;;;;;5.88;100.00;102572.75;4972920;28;20046;-71
2023/04/18 03:38:39;;;;;;;23.77;13.93;;;;;;;5.70;100.00;102571.25;4982052;28;20035;-72
2023/04/18 03:41:05;;;;;;;26.00;15.63;;;;;;;5.78;100.00;102575.59;4980563;28;20053;-72
2023/04/18 03:43:33;;;;;;;28.88;15.90;;;;;;;5.83;100.00;102571.97;4973049;28;20129;-71
2023/04/18 03:45:59;;;;;;;26.95;14.57;;;;;;;5.83;100.00;102576.38;4989431;28;20798;-70
2023/04/18 03:48:25;;;;;;;23.88;14.95;;;;;;;5.86;100.00;102571.91;4987888;28;20154;-72
2023/04/18 03:50:51;;;;;;;21.70;14.35;;;;;;;5.74;100.00;102574.75;4999914;28;20413;-70
2023/04/18 03:53:17;;;;;;;26.20;14.95;;;;;;;5.75;100.00;102573.84;4974729;28;20035;-72
2023/04/18 03:55:42;;;;;;;33.63;14.90;;;;;;;5.85;100.00;102579.88;4974059;28;20643;-72
2023/04/18 03:58:10;;;;;;;29.48;14.10;;;;;;;5.67;100.00;102575.72;4983767;28;20046;-70
2023/04/18 04:00:38;;;;;;;27.63;15.60;;;;;;;5.77;100.00;102565.88;4987625;28;20046;-70
2023/04/18 04:03:07;;;;;;;30.17;15.70;;;;;;;5.69;100.00;102571.28;4972119;28;20046;-70
2023/04/18 04:05:33;;;;;;;24.30;14.93;;;;;;;5.56;100.00;102573.22;4972407;28;20050;-70
2023/04/18 04:07:59;;;;;;;28.15;15.57;;;;;;;5.61;100.00;102566.09;4985473;28;20110;-72
2023/04/18 04:10:24;;;;;;;24.58;13.68;;;;;;;5.63;100.00;102569.63;4972989;28;20279;-72
2023/04/18 04:12:50;;;;;;;28.02;16.23;;;;;;;5.67;100.00;102566.03;4973831;28;20233;-70
2023/04/18 04:15:16;;;;;;;26.20;14.85;;;;;;;5.70;100.00;102568.63;4974951;28;20406;-70
2023/04/18 04:17:51;;;;;;;25.52;13.63;;;;;;;5.62;100.00;102574.91;4971717;28;20066;-69
2023/04/18 04:20:22;;;;;;;26.20;15.18;;;;;;;5.60;100.00;102576.72;4993362;28;20050;-72
2023/04/18 04:22:51;;;;;;;21.55;14.20;;;;;;;5.61;100.00;102574.03;4982956;28;20030;-72
2023/04/18 04:25:18;;;;;;;29.23;14.07;;;;;;;5.63;100.00;102579.34;4976196;28;20031;-72
2023/04/18 04:27:44;;;;;;;28.30;14.38;;;;;;;5.72;100.00;102572.13;4973626;28;20655;-72
2023/04/18 04:30:12;;;;;;;21.70;13.80;;;;;;;5.80;100.00;102579.06;4992234;28;20026;-73
2023/04/18 04:32:37;;;;;;;25.23;16.08;;;;;;;5.89;100.00;102574.50;4971453;28;20054;-72
2023/04/18 04:35:05;;;;;;;24.70;14.82;;;;;;;5.84;100.00;102573.69;4978921;28;20045;-71
2023/04/18 04:37:32;;;;;;;26.48;14.35;;;;;;;5.78;100.00;102570.28;4976338;28;20098;-71
2023/04/18 04:40:16;;;;;;;28.35;16.35;;;;;;;5.77;100.00;102582.63;4975298;28;20045;-71
2023/04/18 04:42:42;;;;;;;24.88;15.32;;;;;;;5.82;100.00;102583.41;4974332;28;20173;-71
2023/04/18 04:45:15;;;;;;;26.45;16.30;;;;;;;5.74;100.00;102593.28;4995803;28;20114;-73
2023/04/18 04:47:40;;;;;;;27.00;15.02;;;;;;;5.85;100.00;102587.81;4972158;28;20742;-71
2023/04/18 04:50:10;;;;;;;30.23;16.20;;;;;;;5.61;100.00;102595.22;4972611;28;20186;-72
2023/04/18 04:52:37;;;;;;;26.05;15.10;;;;;;;5.85;100.00;102590.47;4978696;28;20611;-71
2023/04/18 04:55:03;;;;;;;25.10;14.95;;;;;;;5.86;100.00;102592.19;4988959;28;20054;-71
2023/04/18 04:57:28;;;;;;;23.85;14.95;;;;;;;5.96;100.00;102589.41;4974492;28;20049;-71
2023/04/18 04:59:54;;;;;;;27.13;15.80;;;;;;;5.92;100.00;102597.44;4972237;28;20046;-72
2023/04/18 05:02:21;;;;;;;26.23;15.40;;;;;;;5.94;100.00;102603.59;4973445;28;20038;-72
2023/04/18 05:04:48;;;;;;;24.52;15.18;;;;;;;5.88;100.00;102607.19;4973196;28;20038;-72
2023/04/18 05:07:13;;;;;;;25.10;15.38;;;;;;;6.00;100.00;102600.84;4970485;28;20050;-71
2023/04/18 05:09:39;;;;;;;26.88;14.90;;;;;;;5.94;100.00;102604.47;4984327;28;20035;-72
2023/04/18 05:12:05;;;;;;;26.10;15.70;;;;;;;6.03;100.00;102605.22;4975960;28;20050;-71
2023/04/18 05:14:31;;;;;;;26.52;14.90;;;;;;;6.07;100.00;102598.94;4993082;28;20038;-71
2023/04/18 05:16:57;;;;;;;26.50;16.30;;;;;;;6.04;100.00;102594.59;4977604;28;20049;-72
2023/04/18 05:19:22;;;;;;;23.30;14.68;;;;;;;6.17;100.00;102606.72;4986379;28;20049;-71
2023/04/18 05:21:48;;;;;;;26.92;16.40;;;;;;;6.16;100.00;102601.47;4989170;28;20098;-71
2023/04/18 05:24:14;;;;;;;27.10;15.07;;;;;;;6.20;100.00;102601.38;4992883;28;20739;-71
2023/04/18 05:26:39;;;;;;;29.10;14.52;;;;;;;6.36;100.00;102606.41;4975866;28;20045;-71
2023/04/18 05:29:05;;;;;;;29.45;15.38;;;;;;;6.43;100.00;102611.59;4991647;28;20035;-70
2023/04/18 05:31:32;;;;;;;31.55;15.98;;;;;;;6.45;100.00;102608.91;4984774;28;20035;-70
2023/04/18 05:33:57;;;;;;;23.95;15.30;;;;;;;6.52;100.00;102612.31;4982299;28;20043;-72
2023/04/18 05:36:23;;;;;;;23.13;14.73;;;;;;;6.49;100.00;102614.13;4986491;28;20762;-71
2023/04/18 05:38:48;;;;;;;24.08;14.73;;;;;;;6.61;100.00;102620.09;4975214;28;20027;-72
2023/04/18 05:41:14;;;;;;;24.83;14.93;;;;;;;6.60;100.00;102627.19;4973448;28;20735;-73
2023/04/18 05:43:40;;;;;;;25.95;14.55;;;;;;;6.75;100.00;102624.25;4979285;28;20657;-72
2023/04/18 05:46:05;;;;;;;24.15;14.80;;;;;;;6.75;100.00;102632.22;4974813;28;20047;-73
2023/04/18 05:48:31;;;;;;;25.85;15.15;;;;;;;6.86;100.00;102628.47;4971119;28;20035;-72
2023/04/18 05:50:57;;;;;;;24.92;14.80;;;;;;;6.89;100.00;102631.97;4975664;28;20030;-72
2023/04/18 05:53:23;;;;;;;27.95;15.13;;;;;;;6.86;100.00;102626.69;4970726;28;20039;-71
2023/04/18 05:55:49;;;;;;;26.73;15.02;;;;;;;7.10;100.00;102627.13;4976476;28;20031;-72
2023/04/18 05:58:15;;;;;;;26.48;13.77;;;;;;;7.07;100.00;102627.19;4986784;28;20039;-72
2023/04/18 06:00:41;;;;;;;26.90;14.82;;;;;;;7.09;100.00;102631.56;4972102;28;20432;-72
2023/04/18 06:03:07;;;;;;;22.92;13.57;;;;;;;7.25;100.00;102634.78;4975390;28;20034;-72
2023/04/18 06:05:32;;;;;;;31.23;14.15;;;;;;;7.25;100.00;102634.78;4976842;28;20779;-72
2023/04/18 06:07:58;;;;;;;23.30;14.07;;;;;;;7.19;100.00;102626.94;4977703;28;20492;-72
2023/04/18 06:10:23;;;;;;;23.98;13.00;;;;;;;7.43;100.00;102625.53;4971338;28;20035;-70
2023/04/18 06:12:49;;;;;;;25.92;13.27;;;;;;;7.26;100.00;102632.09;4973622;28;21057;-72
2023/04/18 06:15:15;;;;;;;22.02;14.43;;;;;;;7.25;100.00;102632.13;4976247;28;20039;-72
2023/04/18 06:17:40;;;;;;;21.92;12.68;;;;;;;7.17;100.00;102636.69;4975816;28;20048;-70
2023/04/18 06:20:06;;;;;;;22.48;14.18;;;;;;;7.41;100.00;102641.50;4971674;28;20101;-72
2023/04/18 06:22:34;;;;;;;23.95;13.90;;;;;;;7.49;100.00;102644.00;4970027;28;20094;-69
2023/04/18 06:25:00;;;;;;;24.27;14.30;;;;;;;7.54;100.00;102642.13;4971000;28;20031;-72
2023/04/18 06:27:26;;;;;;;21.85;12.85;;;;;;;7.57;100.00;102646.47;4971805;28;20069;-72
2023/04/18 06:29:52;;;;;;;21.08;13.85;;;;;;;7.58;100.00;102649.13;4981065;28;20045;-70
2023/04/18 06:32:17;;;;;;;25.90;14.43;;;;;;;7.86;100.00;102645.84;4987759;28;20078;-71
2023/04/18 06:34:43;;;;;;;22.25;12.43;;;;;;;7.69;100.00;102644.44;4978582;28;20031;-71
2023/04/18 06:37:10;;;;;;;20.70;13.23;;;;;;;7.93;100.00;102648.31;4971394;28;20777;-70
2023/04/18 06:39:35;;;;;;;20.25;13.25;;;;;;;8.46;100.00;102640.84;4969893;28;20031;-72
2023/04/18 06:42:03;;;;;;;20.33;14.60;;;;;;;8.23;100.00;102648.47;4975212;28;20042;-71
2023/04/18 06:44:30;;;;;;;22.73;13.00;;;;;;;8.67;100.00;102643.84;4975491;28;20071;-71
2023/04/18 06:46:57;;;;;;;23.30;12.65;;;;;;;8.21;100.00;102648.53;4994497;28;20039;-71
2023/04/18 06:49:23;;;;;;;17.17;12.63;;;;;;;8.25;100.00;102652.00;4969004;28;20035;-70
2023/04/18 06:51:48;;;;;;;16.60;11.85;;;;;;;8.35;100.00;102648.19;4975055;28;20030;-73
2023/04/18 06:54:14;;;;;;;22.27;12.68;;;;;;;8.39;100.00;102652.56;4973501;28;20429;-72
2023/04/18 06:56:39;;;;;;;20.60;12.38;;;;;;;8.56;100.00;102647.66;4971795;28;20035;-71
2023/04/18 06:59:05;;;;;;;19.80;11.90;;;;;;;8.61;100.00;102644.88;4975319;28;20046;-72
2023/04/18 07:01:34;;;;;;;18.85;11.93;;;;;;;8.86;100.00;102647.78;4985958;28;20054;-72
2023/04/18 07:04:00;;;;;;;19.98;10.25;;;;;;;8.77;100.00;102651.53;4978742;28;20031;-72
2023/04/18 07:06:26;;;;;;;16.77;10.63;;;;;;;8.66;100.00;102653.63;4972809;28;20035;-72
2023/04/18 07:08:54;;;;;;;20.75;10.70;;;;;;;8.56;100.00;102646.81;4989306;28;20046;-72
2023/04/18 07:11:20;;;;;;;20.17;12.80;;;;;;;8.54;100.00;102660.16;4969741;28;20062;-71
2023/04/18 07:13:47;;;;;;;13.60;9.40;;;;;;;8.54;100.00;102659.28;4970551;28;20083;-71
2023/04/18 07:16:13;;;;;;;17.05;9.23;;;;;;;8.69;100.00;102660.66;4976866;28;20049;-71
2023/04/18 07:18:38;;;;;;;13.98;9.70;;;;;;;8.79;100.00;102662.16;4986287;28;20046;-70
2023/04/18 07:21:07;;;;;;;15.43;9.10;;;;;;;9.17;100.00;102662.88;4974467;28;20042;-70
2023/04/18 07:23:33;;;;;;;15.43;9.88;;;;;;;9.44;100.00;102669.19;4974972;28;20108;-70
2023/04/18 07:26:01;;;;;;;14.10;9.45;;;;;;;9.62;100.00;102660.66;4976334;28;20039;-70
2023/04/18 07:28:30;;;;;;;15.75;10.57;;;;;;;9.38;100.00;102666.72;4972701;28;20038;-71
2023/04/18 07:30:57;;;;;;;17.40;10.98;;;;;;;9.51;100.00;102658.34;4976642;28;20027;-72
2023/04/18 07:33:23;;;;;;;12.18;9.55;;;;;;;9.62;100.00;102662.47;4974688;28;20066;-71
2023/04/18 07:35:50;;;;;;;15.85;9.60;;;;;;;9.94;100.00;102667.69;4982200;28;20711;-72
2023/04/18 07:38:16;;;;;;;17.02;8.88;;;;;;;9.65;100.00;102659.72;4975428;28;20512;-72
2023/04/18 07:40:43;;;;;;;13.73;8.38;;;;;;;9.76;100.00;102668.25;4985931;28;20125;-72
2023/04/18 07:43:09;;;;;;;14.70;9.38;;;;;;;10.03;100.00;102664.72;4974073;28;20043;-71
2023/04/18 07:45:37;;;;;;;21.00;9.70;;;;;;;10.15;100.00;102663.47;4973643;28;20031;-71
2023/04/18 07:48:04;;;;;;;13.63;8.25;;;;;;;9.96;100.00;102673.84;4979372;28;20041;-71
2023/04/18 07:50:30;;;;;;;12.50;8.48;;;;;;;9.42;100.00;102687.88;4990848;28;20065;-71
2023/04/18 07:52:55;;;;;;;13.93;8.98;;;;;;;9.65;100.00;102689.88;4974268;28;20037;-72
2023/04/18 07:55:21;;;;;;;16.10;9.05;;;;;;;9.68;100.00;102688.91;4976331;28;20038;-72
2023/04/18 07:57:49;;;;;;;12.75;9.60;;;;;;;9.60;100.00;102681.16;4972667;28;20085;-71
2023/04/18 08:00:18;;;;;;;10.45;8.50;;;;;;;9.63;100.00;102682.84;4981181;28;20095;-72
2023/04/18 08:02:44;;;;;;;12.55;8.35;;;;;;;10.26;100.00;102673.81;4975656;28;20040;-70
2023/04/18 08:05:10;;;;;;;15.00;9.85;;;;;;;10.15;100.00;102681.25;4972157;28;20514;-69
2023/04/18 08:07:36;;;;;;;16.17;9.40;;;;;;;10.62;100.00;102685.91;4974743;28;20046;-72
2023/04/18 08:10:02;;;;;;;13.82;9.70;;;;;;;10.50;100.00;102689.00;4977128;28;20039;-72
2023/04/18 08:12:28;;;;;;;17.05;9.30;;;;;;;10.55;99.86;102680.84;4972665;28;20546;-72
2023/04/18 08:14:54;;;;;;;16.17;9.38;;;;;;;10.82;99.57;102685.22;4971684;28;20872;-72
2023/04/18 08:17:21;;;;;;;13.75;8.82;;;;;;;10.24;99.97;102675.63;4973795;28;20030;-72
2023/04/18 08:19:47;;;;;;;13.40;8.15;;;;;;;10.17;100.00;102695.41;4973593;28;20054;-69
2023/04/18 08:22:12;;;;;;;14.57;8.98;;;;;;;9.95;100.00;102685.44;4988761;28;20794;-72
2023/04/18 08:24:38;;;;;;;14.63;10.02;;;;;;;10.07;100.00;102694.81;4974324;28;20421;-72
2023/04/18 08:27:04;;;;;;;14.75;9.13;;;;;;;10.16;100.00;102697.19;4985421;28;20035;-70
2023/04/18 08:29:30;;;;;;;15.88;8.82;;;;;;;9.83;100.00;102699.97;4977080;28;20150;-72
2023/04/18 08:31:56;;;;;;;13.88;9.35;;;;;;;9.89;100.00;102706.03;4978652;28;20126;-69
2023/04/18 08:34:22;;;;;;;12.85;9.07;;;;;;;9.60;100.00;102715.78;4976343;28;20085;-71
2023/04/18 08:36:49;;;;;;;15.68;9.30;;;;;;;9.64;100.00;102704.13;4978215;28;20031;-72
2023/04/18 08:39:15;;;;;;;13.35;9.25;;;;;;;9.70;100.00;102706.59;4979073;28;20035;-72
2023/04/18 08:41:42;;;;;;;15.35;9.45;;;;;;;9.80;100.00;102707.22;4978138;28;20085;-70
2023/04/18 08:44:08;;;;;;;14.88;8.70;;;;;;;9.69;100.00;102722.63;4973654;28;20059;-70
2023/04/18 08:46:36;;;;;;;12.45;8.40;;;;;;;9.81;100.00;102717.81;4978686;28;20039;-70
2023/04/18 08:49:05;;;;;;;14.73;9.00;;;;;;;10.01;100.00;102714.53;4978501;28;20142;-70
2023/04/18 08:51:34;;;;;;;11.82;8.65;;;;;;;9.84;100.00;102711.53;4989478;28;20035;-70
2023/04/18 08:54:03;;;;;;;19.67;8.85;;;;;;;9.78;100.00;102711.69;4991192;28;20035;-71
2023/04/18 08:56:29;;;;;;;13.52;8.93;;;;;;;9.84;100.00;102715.06;4976301;28;20118;-71
2023/04/18 08:58:59;;;;;;;15.05;9.25;;;;;;;9.95;100.00;102721.88;4985948;28;20034;-71
2023/04/18 09:01:55;;;;;;;11.90;8.73;;;;;;;10.20;100.00;102724.66;4958595;28;20067;-72
2023/04/18 09:04:37;;;;;;;15.25;9.23;;;;;;;10.20;100.00;102720.19;4987243;28;20064;-70
2023/04/18 09:07:12;;;;;;;12.48;8.10;;;;;;;10.12;100.00;102709.75;4972874;28;20034;-71
2023/04/18 09:09:49;;;;;;;14.25;8.40;;;;;;;9.99;100.00;102726.16;4972582;28;20031;-71
2023/04/18 09:12:24;;;;;;;11.68;8.65;;;;;;;10.46;100.00;102698.03;4971168;28;20031;-74
2023/04/18 09:14:57;;;;;;;14.65;9.93;;;;;;;10.44;100.00;102707.00;4973749;28;20038;-72
2023/04/18 09:17:52;;;;;;;19.50;10.30;;;;;;;10.49;100.00;102711.28;4975365;28;21006;-72
2023/04/18 09:20:29;;;;;;;13.93;8.93;;;;;;;10.43;100.00;102718.59;4971366;28;20145;-71
2023/04/18 09:22:59;;;;;;;17.88;9.65;;;;;;;10.29;100.00;102706.59;4986821;28;20035;-72
2023/04/18 09:25:40;;;;;;;14.45;9.32;;;;;;;10.72;100.00;102717.63;4974893;28;20046;-73
2023/04/18 09:28:32;;;;;;;11.82;8.18;;;;;;;10.35;100.00;102708.19;4975854;28;20705;-72
2023/04/18 09:31:10;;;;;;;10.67;7.80;;;;;;;10.45;100.00;102714.09;4987505;28;20195;-71
2023/04/18 09:33:37;;;;;;;15.55;9.00;;;;;;;10.46;100.00;102703.38;4973844;28;20400;-72
2023/04/18 09:36:20;;;;;;;12.10;8.80;;;;;;;10.66;100.00;102700.03;4978448;28;20050;-71
2023/04/18 09:38:47;;;;;;;12.43;9.02;;;;;;;11.13;100.00;102697.50;4993254;28;20046;-71
2023/04/18 09:41:17;;;;;;;12.23;8.15;;;;;;;10.75;100.00;102710.41;4978304;28;20046;-71
2023/04/18 09:43:44;;;;;;;11.27;8.35;;;;;;;10.89;100.00;102693.88;4977988;28;20043;-71
2023/04/18 09:46:11;;;;;;;14.25;9.35;;;;;;;10.79;100.00;102684.47;4979322;28;20151;-71
2023/04/18 09:48:38;;;;;;;12.80;9.63;;;;;;;10.68;100.00;102691.97;4974488;28;20042;-72
2023/04/18 09:51:10;;;;;;;10.75;7.75;;;;;;;11.00;100.00;102690.88;4975815;28;20073;-70
2023/04/18 09:53:40;;;;;;;14.15;8.73;;;;;;;11.05;100.00;102683.56;4974419;28;20118;-70
2023/04/18 09:56:11;;;;;;;13.00;8.80;;;;;;;11.25;98.75;102688.19;4992303;28;20121;-70
2023/04/18 09:58:40;;;;;;;11.93;8.82;;;;;;;11.72;100.00;102675.69;4989671;28;20047;-71
2023/04/18 10:01:06;;;;;;;12.10;8.27;;;;;;;11.04;97.49;102687.13;4977584;28;20043;-73
2023/04/18 10:03:39;;;;;;;11.05;8.20;;;;;;;11.57;93.57;102687.84;4973615;28;20616;-72
2023/04/18 10:06:05;;;;;;;11.18;8.73;;;;;;;11.47;97.00;102698.94;4977406;28;20034;-71
2023/04/18 10:08:33;;;;;;;11.02;8.30;;;;;;;11.95;95.56;102685.53;4979535;28;20034;-71
2023/04/18 10:10:58;;;;;;;15.30;8.75;;;;;;;11.59;95.70;102701.13;4973645;28;20043;-72
2023/04/18 10:13:25;;;;;;;12.20;8.80;;;;;;;11.36;97.28;102689.53;4971417;28;20038;-70
2023/04/18 10:15:51;;;;;;;16.10;9.68;;;;;;;11.11;99.64;102696.69;4986601;28;20031;-72
2023/04/18 10:18:22;;;;;;;12.13;9.15;;;;;;;10.97;100.00;102689.16;4973509;28;20851;-69
2023/04/18 10:20:47;;;;;;;12.57;9.43;;;;;;;10.73;100.00;102698.03;4991272;28;20046;-70
2023/04/18 10:23:34;;;;;;;14.00;9.70;;;;;;;10.84;99.71;102691.41;4995678;28;20542;-72
2023/04/18 10:26:08;;;;;;;14.68;9.18;;;;;;;10.92;97.43;102687.59;4984677;28;20042;-71
2023/04/18 10:28:55;;;;;;;14.35;9.63;;;;;;;10.74;100.00;102694.41;4984560;28;20034;-71
2023/04/18 10:31:23;;;;;;;15.95;9.90;;;;;;;10.66;100.00;102681.34;4977988;28;20241;-70
2023/04/18 10:33:52;;;;;;;16.65;10.40;;;;;;;11.01;100.00;102703.28;4989816;28;20030;-72
2023/04/18 10:36:21;;;;;;;15.07;10.52;;;;;;;10.85;100.00;102689.59;4971268;28;20032;-71
2023/04/18 10:38:58;;;;;;;15.25;9.40;;;;;;;11.04;99.61;102687.13;4971640;28;20035;-71
2023/04/18 10:41:26;;;;;;;14.40;10.02;;;;;;;11.44;98.80;102688.34;4980700;28;20038;-72
2023/04/18 10:44:08;;;;;;;14.70;10.43;;;;;;;11.67;96.16;102667.84;4970043;28;20047;-72
2023/04/18 10:46:38;;;;;;;14.80;10.48;;;;;;;11.82;96.39;102676.25;4990270;28;20186;-71
2023/04/18 10:49:14;;;;;;;15.63;10.50;;;;;;;11.98;92.73;102679.19;4971340;28;20488;-72
2023/04/18 10:51:40;;;;;;;17.33;10.65;;;;;;;12.00;92.78;102675.53;4992001;28;20164;-69
2023/04/18 10:54:10;;;;;;;17.02;11.45;;;;;;;11.58;94.97;102672.69;4974193;28;20874;-71
2023/04/18 10:56:35;;;;;;;15.45;10.38;;;;;;;11.97;97.77;102658.72;4974631;28;20035;-71
2023/04/18 10:59:02;;;;;;;17.63;11.20;;;;;;;12.35;89.89;102655.38;4975277;28;20907;-72
2023/04/18 11:01:35;;;;;;;14.38;10.93;;;;;;;11.81;96.34;102677.16;4972430;28;20471;-72
2023/04/18 11:04:09;;;;;;;13.93;10.48;;;;;;;11.84;94.64;102664.56;4988321;28;20027;-72
2023/04/18 11:06:56;;;;;;;17.75;11.13;;;;;;;12.05;90.42;102667.28;4980840;28;20067;-72
2023/04/18 11:09:22;;;;;;;15.57;10.57;;;;;;;12.57;90.70;102659.81;4995835;28;20068;-72
2023/04/18 11:12:06;;;;;;;15.48;10.30;;;;;;;12.61;93.52;102661.44;4988985;28;20074;-72
2023/04/18 11:14:50;;;;;;;13.98;10.75;;;;;;;12.42;93.96;102650.63;4969488;28;20125;-71
2023/04/18 11:17:16;;;;;;;15.20;10.63;;;;;;;12.47;93.62;102656.66;4972805;28;20955;-71